Time;durP1;ratioP1;P1;durP2;ratioP2;P2;SDS_P1;SDS_P2;PMS_P1;PMS_P2;Temp;Humidity;BMP_temperature;BMP_pressure;BME280_temperature;BME280_humidity;BME280_pressure;Samples;Min_cycle;Max_cycle;Signal;HPM_P1;HPM_P2
2021/05/31 00:00:35;;;;;;;33.38;16.52;;;9.50;89.70;;;;;;5053053;28;20473;-62
2021/05/31 00:03:01;;;;;;;31.55;16.52;;;9.50;89.30;;;;;;5046733;28;20064;-62
2021/05/31 00:05:27;;;;;;;39.25;18.33;;;9.50;90.30;;;;;;5051983;28;20122;-62
2021/05/31 00:07:54;;;;;;;35.30;18.13;;;10.50;91.00;;;;;;5051105;28;20151;-62
2021/05/31 00:10:20;;;;;;;30.98;17.38;;;9.40;89.50;;;;;;5048298;28;20108;-62
2021/05/31 00:12:46;;;;;;;38.28;18.23;;;11.00;90.00;;;;;;5061138;28;20048;-63
2021/05/31 00:15:13;;;;;;;36.55;17.55;;;10.30;90.10;;;;;;5050280;28;20048;-62
2021/05/31 00:17:39;;;;;;;32.88;17.38;;;9.50;90.00;;;;;;5050175;28;20117;-63
2021/05/31 00:20:09;;;;;;;34.75;18.05;;;9.50;90.40;;;;;;5056761;28;20401;-63
2021/05/31 00:22:35;;;;;;;39.17;17.63;;;9.60;90.00;;;;;;5045610;28;20057;-63
2021/05/31 00:25:02;;;;;;;38.03;17.65;;;8.70;89.10;;;;;;5050717;28;20093;-63
2021/05/31 00:27:28;;;;;;;40.10;18.30;;;;;;;;;;5052874;28;20402;-63
2021/05/31 00:29:54;;;;;;;35.25;18.50;;;10.10;90.90;;;;;;5061366;28;20081;-63
2021/05/31 00:32:20;;;;;;;29.85;16.77;;;9.50;90.90;;;;;;5040781;28;20456;-61
2021/05/31 00:34:46;;;;;;;38.08;18.05;;;9.20;90.90;;;;;;5064526;28;20104;-61
2021/05/31 00:37:13;;;;;;;31.38;16.90;;;9.50;90.60;;;;;;5048428;28;20538;-61
2021/05/31 00:39:39;;;;;;;44.97;16.20;;;9.50;90.60;;;;;;5064369;28;20096;-62
2021/05/31 00:42:05;;;;;;;27.63;14.90;;;9.50;90.90;;;;;;5047345;28;20088;-62
2021/05/31 00:44:31;;;;;;;29.13;14.90;;;9.50;91.10;;;;;;5048511;28;20096;-63
2021/05/31 00:46:57;;;;;;;29.20;14.88;;;8.00;90.50;;;;;;5050869;28;20146;-63
2021/05/31 00:49:25;;;;;;;26.27;14.32;;;9.50;90.50;;;;;;5053780;28;20167;-63
2021/05/31 00:51:52;;;;;;;30.65;14.15;;;10.60;91.30;;;;;;5046875;28;20550;-62
2021/05/31 00:54:19;;;;;;;32.25;15.52;;;9.30;91.40;;;;;;5050738;28;20183;-62
2021/05/31 00:56:45;;;;;;;41.08;15.35;;;10.20;91.50;;;;;;5061297;28;20120;-63
2021/05/31 00:59:12;;;;;;;41.17;14.10;;;9.40;91.40;;;;;;5058178;28;20088;-62
2021/05/31 01:01:38;;;;;;;26.58;14.00;;;10.00;91.40;;;;;;5050193;28;20084;-61
2021/05/31 01:04:05;;;;;;;24.60;13.50;;;9.70;91.50;;;;;;5052826;28;20570;-61
2021/05/31 01:06:35;;;;;;;24.90;13.73;;;10.10;91.90;;;;;;5055499;28;20110;-61
2021/05/31 01:09:08;;;;;;;;;;;10.00;91.60;;;;;;5051209;28;20112;-61
2021/05/31 01:11:55;;;;;;;42.20;14.68;;;9.30;91.60;;;;;;5049294;28;19968;-61
2021/05/31 01:14:34;;;;;;;27.38;14.13;;;10.40;92.00;;;;;;5050261;28;20184;-61
2021/05/31 01:17:03;;;;;;;28.60;14.70;;;9.10;91.80;;;;;;5056218;28;20088;-61
2021/05/31 01:19:52;;;;;;;31.83;16.05;;;10.60;92.00;;;;;;5051192;28;20142;-62
2021/05/31 01:22:22;;;;;;;27.33;13.77;;;9.40;91.30;;;;;;5049602;28;20496;-62
2021/05/31 01:24:50;;;;;;;;;;;9.40;91.20;;;;;;5050229;28;20094;-63
2021/05/31 01:27:20;;;;;;;35.95;14.60;;;8.70;91.70;;;;;;5050513;28;19979;-63
2021/05/31 01:30:00;;;;;;;32.92;14.77;;;9.40;91.10;;;;;;5049087;28;20507;-62
2021/05/31 01:32:34;;;;;;;23.95;13.82;;;9.60;91.80;;;;;;5048855;28;20096;-63
2021/05/31 01:35:03;;;;;;;41.88;16.10;;;9.50;91.40;;;;;;5048328;28;20107;-63
2021/05/31 01:37:31;;;;;;;27.40;15.30;;;9.80;91.10;;;;;;5050415;28;20124;-62
2021/05/31 01:40:03;;;;;;;27.08;14.65;;;10.80;91.60;;;;;;5059646;28;20671;-61
2021/05/31 01:42:30;;;;;;;42.10;16.95;;;10.00;91.90;;;;;;5056773;28;20082;-61
2021/05/31 01:44:59;;;;;;;35.85;16.55;;;9.50;91.30;;;;;;5056214;28;20102;-62
2021/05/31 01:47:26;;;;;;;35.13;16.65;;;8.60;91.50;;;;;;5049625;28;20139;-62
2021/05/31 01:49:54;;;;;;;34.85;16.05;;;9.60;91.70;;;;;;5051065;28;20087;-62
2021/05/31 01:52:23;;;;;;;39.35;16.58;;;9.50;92.00;;;;;;5048423;28;20129;-61
2021/05/31 01:54:52;;;;;;;51.07;16.57;;;9.50;92.00;;;;;;5048283;28;20108;-62
2021/05/31 01:57:19;;;;;;;37.15;17.50;;;9.50;91.90;;;;;;5056813;28;20350;-62
2021/05/31 01:59:45;;;;;;;43.20;17.92;;;9.70;91.60;;;;;;5059573;28;20521;-62
2021/05/31 02:02:11;;;;;;;45.90;17.88;;;9.10;91.80;;;;;;5056775;28;20080;-62
2021/05/31 02:04:37;;;;;;;32.33;18.45;;;9.70;91.80;;;;;;5038756;28;20124;-62
2021/05/31 02:07:03;;;;;;;47.35;16.95;;;10.30;91.90;;;;;;5052903;28;20117;-62
2021/05/31 02:09:29;;;;;;;43.85;18.40;;;10.60;91.90;;;;;;5046985;28;20141;-62
2021/05/31 02:12:16;;;;;;;46.90;18.40;;;9.70;91.50;;;;;;5040662;28;20084;-62
2021/05/31 02:14:59;;;;;;;35.55;16.05;;;9.60;91.60;;;;;;5047530;28;20141;-62
2021/05/31 02:17:45;;;;;;;38.78;17.15;;;9.60;91.80;;;;;;5048672;28;20079;-62
2021/05/31 02:20:15;;;;;;;42.08;17.10;;;10.20;92.20;;;;;;5037850;28;20148;-62
2021/05/31 02:22:46;;;;;;;47.55;18.13;;;9.60;91.50;;;;;;5048741;28;20115;-62
2021/05/31 02:25:13;;;;;;;69.38;18.73;;;8.30;91.70;;;;;;5053057;28;20121;-63
2021/05/31 02:27:41;;;;;;;39.33;18.25;;;10.50;92.20;;;;;;5065691;28;20094;-62
2021/05/31 02:30:07;;;;;;;35.70;17.92;;;9.80;92.20;;;;;;5059569;28;20090;-62
2021/05/31 02:32:33;;;;;;;63.00;19.38;;;9.90;92.30;;;;;;5049051;28;20090;-62
2021/05/31 02:34:59;;;;;;;54.28;17.92;;;9.60;92.40;;;;;;5051706;28;20111;-62
2021/05/31 02:37:34;;;;;;;34.72;16.50;;;10.00;92.00;;;;;;5058199;28;20112;-61
2021/05/31 02:40:01;;;;;;;58.03;18.35;;;9.90;92.00;;;;;;5057570;28;20086;-61
2021/05/31 02:42:27;;;;;;;33.03;17.23;;;9.80;92.10;;;;;;5048341;28;20168;-61
2021/05/31 02:44:53;;;;;;;44.58;17.88;;;9.80;91.80;;;;;;5048664;28;20082;-62
2021/05/31 02:47:19;;;;;;;47.17;17.10;;;10.10;92.10;;;;;;5047009;28;20086;-61
2021/05/31 02:49:45;;;;;;;39.10;18.33;;;9.80;92.20;;;;;;5049780;28;20080;-61
2021/05/31 02:52:11;;;;;;;66.35;20.33;;;10.10;92.20;;;;;;5049624;28;20085;-61
2021/05/31 02:54:37;;;;;;;50.25;18.27;;;11.30;92.60;;;;;;5047855;28;20096;-61
2021/05/31 02:57:03;;;;;;;45.38;18.35;;;9.70;92.40;;;;;;5061264;28;20186;-61
2021/05/31 02:59:29;;;;;;;40.55;17.48;;;10.20;92.60;;;;;;5059414;28;20112;-62
2021/05/31 03:01:55;;;;;;;37.13;16.10;;;9.80;92.40;;;;;;5058842;28;20128;-61
2021/05/31 03:04:21;;;;;;;41.75;18.95;;;10.10;92.20;;;;;;5036035;28;20088;-61
2021/05/31 03:06:47;;;;;;;37.38;18.30;;;9.70;92.30;;;;;;5046913;28;20135;-61
2021/05/31 03:09:13;;;;;;;39.85;17.88;;;10.10;92.50;;;;;;5049907;28;20162;-62
2021/05/31 03:11:39;;;;;;;38.38;17.10;;;10.30;92.10;;;;;;5053069;28;20090;-62
2021/05/31 03:14:05;;;;;;;33.90;18.42;;;10.00;92.10;;;;;;5048428;28;20489;-62
2021/05/31 03:16:30;;;;;;;34.30;18.13;;;10.10;92.40;;;;;;5051349;28;20097;-61
2021/05/31 03:18:57;;;;;;;43.72;18.08;;;;;;;;;;5050606;28;20092;-61
2021/05/31 03:21:22;;;;;;;36.08;17.73;;;10.20;92.40;;;;;;5044964;28;20089;-62
2021/05/31 03:23:48;;;;;;;39.75;19.17;;;10.30;92.30;;;;;;5048193;28;20148;-62
2021/05/31 03:26:14;;;;;;;44.28;20.25;;;10.20;92.10;;;;;;5047504;28;20173;-61
2021/05/31 03:28:40;;;;;;;40.08;18.83;;;10.20;92.10;;;;;;5048158;28;20110;-62
2021/05/31 03:31:06;;;;;;;38.97;19.52;;;10.20;92.30;;;;;;5048100;28;20086;-62
2021/05/31 03:33:35;;;;;;;40.15;19.98;;;;;;;;;;5045209;28;20089;-62
2021/05/31 03:36:01;;;;;;;44.17;20.67;;;10.30;91.70;;;;;;5049881;28;20144;-62
2021/05/31 03:38:28;;;;;;;43.03;18.65;;;10.30;92.10;;;;;;5047833;28;20527;-62
2021/05/31 03:40:54;;;;;;;40.60;20.67;;;8.80;91.70;;;;;;5048080;28;20112;-62
2021/05/31 03:43:20;;;;;;;36.00;20.02;;;10.30;92.00;;;;;;5048042;28;20112;-61
2021/05/31 03:45:46;;;;;;;44.65;20.83;;;11.00;92.20;;;;;;5045170;28;20549;-63
2021/05/31 03:48:13;;;;;;;47.28;19.55;;;10.60;92.10;;;;;;5046316;28;20095;-62
2021/05/31 03:50:39;;;;;;;51.97;19.90;;;10.60;91.90;;;;;;5049979;28;20114;-62
2021/05/31 03:53:05;;;;;;;42.00;19.38;;;11.30;92.10;;;;;;5048233;28;20548;-62
2021/05/31 03:55:31;;;;;;;40.55;19.65;;;10.40;92.00;;;;;;5055561;28;20145;-62
2021/05/31 03:57:57;;;;;;;49.20;18.38;;;10.30;91.60;;;;;;5047053;28;20509;-62
2021/05/31 04:00:24;;;;;;;40.72;19.48;;;10.30;92.10;;;;;;5045017;28;20103;-62
2021/05/31 04:02:50;;;;;;;50.42;20.77;;;10.40;91.80;;;;;;5035527;28;20092;-62
2021/05/31 04:05:17;;;;;;;50.78;20.77;;;11.80;92.40;;;;;;5048048;28;20167;-62
2021/05/31 04:13:13;;;;;;;40.28;20.00;;;10.40;91.70;;;;;;5047024;28;20095;-61
2021/05/31 04:15:39;;;;;;;42.92;20.88;;;10.40;91.90;;;;;;5048292;28;20569;-62
2021/05/31 04:18:05;;;;;;;41.78;20.08;;;;;;;;;;5058584;28;20110;-62
2021/05/31 04:20:31;;;;;;;48.42;21.08;;;10.50;92.00;;;;;;5052226;28;20095;-62
2021/05/31 04:22:57;;;;;;;69.28;20.77;;;10.60;92.00;;;;;;5062332;28;20094;-62
2021/05/31 04:25:24;;;;;;;54.97;19.90;;;8.80;91.50;;;;;;5053185;28;20235;-63
2021/05/31 04:27:50;;;;;;;40.22;18.08;;;10.60;91.70;;;;;;5057956;28;20444;-62
2021/05/31 04:30:16;;;;;;;40.40;20.35;;;10.10;91.80;;;;;;5051752;28;20463;-63
2021/05/31 04:32:42;;;;;;;41.22;18.88;;;10.50;91.80;;;;;;5050412;28;20087;-62
2021/05/31 04:35:08;;;;;;;47.70;20.77;;;11.60;92.60;;;;;;5049547;28;20488;-62
2021/05/31 04:37:34;;;;;;;53.47;19.90;;;10.90;92.10;;;;;;5050414;28;20092;-62
2021/05/31 04:40:02;;;;;;;56.55;20.20;;;10.60;92.30;;;;;;5060395;28;20553;-62
2021/05/31 04:42:28;;;;;;;48.28;19.05;;;10.60;92.20;;;;;;5049447;28;20095;-62
2021/05/31 04:44:54;;;;;;;45.13;19.58;;;8.70;91.50;;;;;;5050306;28;20099;-62
2021/05/31 04:47:20;;;;;;;40.38;18.48;;;10.90;92.30;;;;;;5048293;28;20091;-63
2021/05/31 04:49:46;;;;;;;48.03;18.08;;;10.10;91.90;;;;;;5051367;28;20438;-62
2021/05/31 04:52:11;;;;;;;40.92;18.17;;;10.90;92.30;;;;;;5045878;28;20095;-62
2021/05/31 04:54:37;;;;;;;38.22;18.40;;;11.60;92.50;;;;;;5046338;28;20116;-62
2021/05/31 04:57:03;;;;;;;44.55;18.50;;;10.90;92.30;;;;;;5048739;28;20089;-62
2021/05/31 04:59:30;;;;;;;46.15;18.15;;;;;;;;;;5049084;28;20230;-62
2021/05/31 05:01:55;;;;;;;47.47;17.63;;;10.00;92.20;;;;;;5050586;28;20146;-62
2021/05/31 05:04:21;;;;;;;38.78;17.70;;;10.80;92.40;;;;;;5046841;28;20088;-63
2021/05/31 05:06:47;;;;;;;40.15;16.95;;;10.80;92.50;;;;;;5054879;28;20084;-62
2021/05/31 05:09:13;;;;;;;36.80;17.52;;;10.90;92.30;;;;;;5048096;28;20092;-62
2021/05/31 05:11:39;;;;;;;35.85;18.60;;;11.30;92.40;;;;;;5044337;28;20153;-62
2021/05/31 05:14:05;;;;;;;35.55;17.65;;;11.00;92.30;;;;;;5054495;28;20087;-61
2021/05/31 05:16:31;;;;;;;41.25;17.30;;;11.10;92.30;;;;;;5044781;28;20135;-62
2021/05/31 05:18:57;;;;;;;42.28;18.15;;;11.10;92.30;;;;;;5050177;28;20097;-61
2021/05/31 05:21:23;;;;;;;38.03;17.33;;;9.50;91.90;;;;;;5043483;28;20096;-62
2021/05/31 05:23:49;;;;;;;39.10;16.88;;;10.30;91.90;;;;;;5050419;28;20122;-63
2021/05/31 05:26:18;;;;;;;41.45;15.82;;;11.20;92.10;;;;;;5048082;28;20116;-62
2021/05/31 05:28:44;;;;;;;32.63;16.50;;;11.20;91.90;;;;;;5049622;28;20175;-62
2021/05/31 05:31:11;;;;;;;35.83;16.25;;;11.20;92.00;;;;;;5048440;28;20235;-63
2021/05/31 05:33:39;;;;;;;35.38;16.65;;;11.10;91.90;;;;;;5049908;28;20084;-63
2021/05/31 05:41:56;;;;;;;34.00;17.02;;;11.40;91.90;;;;;;5010885;28;20113;-62
2021/05/31 05:44:47;;;;;;;36.75;18.08;;;11.50;92.00;;;;;;5049966;28;20144;-62
2021/05/31 05:49:45;;;;;;;35.30;16.40;;;10.80;91.60;;;;;;5046980;28;20491;-61
2021/05/31 05:52:12;;;;;;;34.95;18.02;;;11.60;91.60;;;;;;5048015;28;20092;-62
2021/05/31 05:54:37;;;;;;;32.95;16.08;;;10.70;91.30;;;;;;5050439;28;20103;-62
2021/05/31 05:57:03;;;;;;;30.00;15.10;;;11.90;91.80;;;;;;5052919;28;20179;-62
2021/05/31 05:59:29;;;;;;;34.97;16.08;;;11.70;91.50;;;;;;5063638;28;20093;-62
2021/05/31 06:01:55;;;;;;;35.20;16.63;;;11.80;91.50;;;;;;5052830;28;20089;-63
2021/05/31 06:04:21;;;;;;;35.17;16.50;;;11.80;91.60;;;;;;5049108;28;20112;-61
2021/05/31 06:06:47;;;;;;;43.05;18.70;;;11.80;91.30;;;;;;5044901;28;20177;-63
2021/05/31 06:09:15;;;;;;;28.65;15.52;;;11.80;91.30;;;;;;5077889;28;20077;-62
2021/05/31 06:11:41;;;;;;;28.13;14.77;;;12.00;91.10;;;;;;5052106;28;20089;-62
2021/05/31 06:14:09;;;;;;;30.42;14.25;;;12.40;91.20;;;;;;5044576;28;20093;-62
2021/05/31 06:16:36;;;;;;;24.80;13.75;;;12.00;91.10;;;;;;5053359;28;20121;-62
2021/05/31 06:19:02;;;;;;;28.50;15.13;;;12.40;91.20;;;;;;5054629;28;20093;-61
2021/05/31 06:21:28;;;;;;;28.70;14.52;;;12.10;90.80;;;;;;5047233;28;20558;-62
2021/05/31 06:23:54;;;;;;;34.30;17.50;;;12.20;90.70;;;;;;5048213;28;20139;-63
2021/05/31 06:26:21;;;;;;;27.83;14.82;;;12.80;90.70;;;;;;5049264;28;20617;-61
2021/05/31 06:28:47;;;;;;;32.42;16.55;;;12.50;90.40;;;;;;5052864;28;20093;-62
2021/05/31 06:31:13;;;;;;;33.35;16.77;;;12.40;90.50;;;;;;5051174;28;20113;-62
2021/05/31 06:33:39;;;;;;;34.55;19.27;;;12.40;90.60;;;;;;5048399;28;20077;-62
2021/05/31 06:36:08;;;;;;;32.90;17.40;;;12.90;90.30;;;;;;5049742;28;20101;-62
2021/05/31 06:38:34;;;;;;;34.03;16.63;;;12.40;90.30;;;;;;5051594;28;20094;-62
2021/05/31 06:41:02;;;;;;;33.13;17.00;;;12.90;91.00;;;;;;5058107;28;20478;-61
2021/05/31 06:43:29;;;;;;;32.65;16.70;;;12.60;90.70;;;;;;5049178;28;20457;-62
2021/05/31 06:45:56;;;;;;;29.15;15.95;;;12.50;90.90;;;;;;5034235;28;20089;-62
2021/05/31 06:48:21;;;;;;;33.47;17.52;;;12.60;90.40;;;;;;5049171;28;20604;-62
2021/05/31 06:50:47;;;;;;;32.05;16.95;;;12.60;90.10;;;;;;5053379;28;20097;-62
2021/05/31 06:53:13;;;;;;;29.10;16.85;;;12.70;90.00;;;;;;5058171;28;20147;-62
2021/05/31 06:55:41;;;;;;;29.67;16.70;;;12.80;89.30;;;;;;5050955;28;20101;-61
2021/05/31 06:58:07;;;;;;;38.22;17.70;;;12.80;89.70;;;;;;5041853;28;20093;-62
2021/05/31 07:00:33;;;;;;;31.10;16.90;;;12.80;89.40;;;;;;5038111;28;20147;-62
2021/05/31 07:02:59;;;;;;;35.63;16.45;;;12.90;89.70;;;;;;5054796;28;20169;-62
2021/05/31 07:05:25;;;;;;;30.08;16.27;;;14.40;89.70;;;;;;5059082;28;20093;-63
2021/05/31 07:07:52;;;;;;;31.27;17.50;;;13.10;88.90;;;;;;5055745;28;20154;-62
2021/05/31 07:10:23;;;;;;;28.45;15.57;;;14.30;88.60;;;;;;5055640;28;20096;-62
2021/05/31 07:12:48;;;;;;;34.92;19.48;;;13.10;88.00;;;;;;5048384;28;20543;-62
2021/05/31 07:15:14;;;;;;;26.92;15.05;;;14.40;88.00;;;;;;5050637;28;20112;-62
2021/05/31 07:17:41;;;;;;;30.58;15.15;;;13.20;87.70;;;;;;5045771;28;20146;-62
2021/05/31 07:20:10;;;;;;;26.27;15.40;;;13.20;87.00;;;;;;5048810;28;20097;-62
2021/05/31 07:22:36;;;;;;;32.97;16.75;;;13.20;87.50;;;;;;5051541;28;20081;-62
2021/05/31 07:25:04;;;;;;;27.33;15.50;;;13.10;88.00;;;;;;5071907;28;20097;-63
2021/05/31 07:27:29;;;;;;;33.38;16.35;;;13.20;87.90;;;;;;5050001;28;20439;-62
2021/05/31 07:29:56;;;;;;;34.15;17.10;;;13.10;87.50;;;;;;5047656;28;20143;-62
2021/05/31 07:32:22;;;;;;;34.72;18.33;;;12.80;86.90;;;;;;5046513;28;20097;-62
2021/05/31 07:34:50;;;;;;;36.42;19.27;;;13.30;87.50;;;;;;5054431;28;20185;-61
2021/05/31 07:37:17;;;;;;;36.65;19.83;;;13.40;88.00;;;;;;5047273;28;20085;-61
2021/05/31 07:39:43;;;;;;;33.67;18.10;;;13.40;86.80;;;;;;5050301;28;20093;-61
2021/05/31 07:42:09;;;;;;;38.35;18.23;;;13.50;87.60;;;;;;5055628;28;20093;-61
2021/05/31 07:44:55;;;;;;;33.20;19.20;;;13.50;87.60;;;;;;5050889;28;20558;-61
2021/05/31 07:47:21;;;;;;;36.95;19.50;;;13.60;87.10;;;;;;5039409;28;20093;-61
2021/05/31 07:49:47;;;;;;;34.17;19.30;;;13.70;87.10;;;;;;5052619;28;20102;-61
2021/05/31 07:52:20;;;;;;;38.42;18.55;;;13.80;86.20;;;;;;5045012;28;20170;-61
2021/05/31 07:54:47;;;;;;;37.90;19.88;;;13.80;86.70;;;;;;5051380;28;20112;-61
2021/05/31 07:57:14;;;;;;;38.20;20.92;;;13.40;86.40;;;;;;5050984;28;20082;-60
2021/05/31 07:59:40;;;;;;;39.67;20.38;;;14.20;86.60;;;;;;5055289;28;20453;-61
2021/05/31 08:02:07;;;;;;;37.30;19.05;;;14.10;86.70;;;;;;5055628;28;20092;-61
2021/05/31 08:04:33;;;;;;;31.98;18.05;;;14.40;85.00;;;;;;5053885;28;20093;-61
2021/05/31 08:07:00;;;;;;;32.00;17.90;;;14.40;85.60;;;;;;5060756;28;20089;-61
2021/05/31 08:09:26;;;;;;;30.13;17.65;;;14.50;85.10;;;;;;5063914;28;20590;-61
2021/05/31 08:11:52;;;;;;;33.20;18.73;;;14.70;84.10;;;;;;5052186;28;20143;-61
2021/05/31 08:14:18;;;;;;;32.78;18.67;;;14.70;83.30;;;;;;5050949;28;20093;-61
2021/05/31 08:16:46;;;;;;;32.38;18.45;;;14.90;82.60;;;;;;5061598;28;20094;-61
2021/05/31 08:19:12;;;;;;;33.08;19.88;;;14.90;83.40;;;;;;5050752;28;20117;-61
2021/05/31 08:21:38;;;;;;;37.78;20.10;;;15.10;83.50;;;;;;5043413;28;20086;-61
2021/05/31 08:24:04;;;;;;;33.92;19.80;;;15.30;83.90;;;;;;5052121;28;20083;-61
2021/05/31 08:26:30;;;;;;;32.22;18.33;;;15.70;83.10;;;;;;5056591;28;20119;-61
2021/05/31 08:28:56;;;;;;;28.35;18.30;;;16.10;80.20;;;;;;5052131;28;20102;-61
2021/05/31 08:31:22;;;;;;;29.08;18.50;;;16.60;79.90;;;;;;5048275;28;20586;-61
2021/05/31 08:33:49;;;;;;;29.15;17.65;;;17.60;79.00;;;;;;5050525;28;20493;-61
2021/05/31 08:36:15;;;;;;;27.75;17.25;;;17.80;76.70;;;;;;5049367;28;20101;-61
2021/05/31 08:38:42;;;;;;;27.63;18.52;;;18.50;76.30;;;;;;5064639;28;20085;-61
2021/05/31 08:41:08;;;;;;;27.70;17.20;;;19.10;69.00;;;;;;5060155;28;20192;-61
2021/05/31 08:43:33;;;;;;;29.33;19.42;;;19.80;63.80;;;;;;5048475;28;20089;-61
2021/05/31 08:46:01;;;;;;;31.35;19.30;;;19.70;66.40;;;;;;5056672;28;20100;-62
2021/05/31 08:48:43;;;;;;;28.35;18.50;;;20.10;66.30;;;;;;5058379;28;20093;-60
2021/05/31 08:51:09;;;;;;;29.33;18.85;;;20.40;64.80;;;;;;5062103;28;20174;-61
2021/05/31 08:53:35;;;;;;;25.05;18.08;;;20.70;62.80;;;;;;5048984;28;20121;-62
2021/05/31 08:56:05;;;;;;;25.02;16.70;;;21.00;62.10;;;;;;5050891;28;20112;-61
2021/05/31 08:58:31;;;;;;;28.38;17.23;;;21.30;61.10;;;;;;5050377;28;20707;-61
2021/05/31 09:00:56;;;;;;;26.08;18.15;;;21.40;58.80;;;;;;5057004;28;20097;-60
2021/05/31 09:03:22;;;;;;;26.13;17.98;;;21.50;59.20;;;;;;5055736;28;20085;-60
2021/05/31 09:05:49;;;;;;;24.60;18.13;;;22.30;55.30;;;;;;5045653;28;20584;-61
2021/05/31 09:08:20;;;;;;;25.45;17.95;;;21.90;57.80;;;;;;5054332;28;20135;-61
2021/05/31 09:10:49;;;;;;;25.27;17.52;;;22.10;56.60;;;;;;5051042;28;20101;-61
2021/05/31 09:13:53;;;;;;;26.65;18.95;;;22.30;56.40;;;;;;5050265;28;20143;-61
2021/05/31 09:16:22;;;;;;;23.10;17.73;;;22.50;54.70;;;;;;5029339;28;20128;-62
2021/05/31 09:18:53;;;;;;;26.38;17.95;;;22.50;56.10;;;;;;5053344;28;20167;-61
2021/05/31 09:21:22;;;;;;;24.80;18.08;;;22.60;53.90;;;;;;5058015;28;20093;-61
2021/05/31 09:23:58;;;;;;;;;;;22.70;54.30;;;;;;5050857;28;20081;-61
2021/05/31 09:26:26;;;;;;;22.43;15.57;;;22.80;50.70;;;;;;5052922;28;20011;-60
2021/05/31 09:29:00;;;;;;;22.30;16.73;;;23.00;52.90;;;;;;5052348;28;20331;-61
2021/05/31 09:31:28;;;;;;;23.58;16.52;;;23.10;51.60;;;;;;5048890;28;20091;-61
2021/05/31 09:34:05;;;;;;;22.48;16.20;;;23.20;53.00;;;;;;5051038;28;20093;-61
2021/05/31 09:36:32;;;;;;;21.75;15.68;;;23.40;52.00;;;;;;5054367;28;20086;-61
2021/05/31 09:38:59;;;;;;;23.05;15.20;;;23.50;51.60;;;;;;5056894;28;20096;-61
2021/05/31 09:41:30;;;;;;;20.60;16.02;;;23.50;51.10;;;;;;5049769;28;20116;-61
2021/05/31 09:44:00;;;;;;;23.08;15.40;;;23.60;50.40;;;;;;5055254;28;20143;-61
2021/05/31 09:46:52;;;;;;;22.02;15.98;;;23.50;49.90;;;;;;5043948;28;20120;-61
2021/05/31 09:49:20;;;;;;;21.70;14.57;;;23.70;47.70;;;;;;5047171;28;20105;-61
2021/05/31 09:51:54;;;;;;;21.03;13.90;;;23.70;50.00;;;;;;5054022;28;20184;-61
2021/05/31 09:54:40;;;;;;;19.52;13.27;;;23.80;48.40;;;;;;5050428;28;20139;-60
2021/05/31 09:57:16;;;;;;;19.02;13.45;;;23.90;49.80;;;;;;5052307;28;20570;-61
2021/05/31 09:59:56;;;;;;;19.83;13.50;;;24.10;48.80;;;;;;5047803;28;20081;-61
2021/05/31 10:03:23;;;;;;;17.88;13.25;;;24.10;48.20;;;;;;5044916;28;20090;-62
2021/05/31 10:10:51;;;;;;;18.25;13.15;;;24.20;49.10;;;;;;5047457;28;20111;-62
2021/05/31 10:13:18;;;;;;;17.88;13.10;;;24.30;48.10;;;;;;5045046;28;20093;-63
2021/05/31 10:15:44;;;;;;;17.20;11.75;;;24.30;48.50;;;;;;5048662;28;20200;-62
2021/05/31 10:18:14;;;;;;;17.50;12.27;;;24.20;44.00;;;;;;5053593;28;20096;-63
2021/05/31 10:20:41;;;;;;;18.42;13.20;;;24.30;46.10;;;;;;5056379;28;20542;-62
2021/05/31 10:23:09;;;;;;;15.45;11.30;;;24.20;46.60;;;;;;5044387;28;20089;-62
2021/05/31 10:25:39;;;;;;;15.82;12.00;;;24.20;47.10;;;;;;5043462;28;20113;-62
2021/05/31 10:28:14;;;;;;;20.17;13.15;;;24.20;47.40;;;;;;5046235;28;20173;-62
2021/05/31 10:30:41;;;;;;;17.13;12.27;;;24.20;45.60;;;;;;5049413;28;20605;-62
2021/05/31 10:33:15;;;;;;;19.80;13.15;;;24.20;46.60;;;;;;5048400;28;20542;-62
2021/05/31 10:35:41;;;;;;;17.40;12.07;;;24.30;45.50;;;;;;5047063;28;20104;-63
2021/05/31 10:38:15;;;;;;;18.52;13.07;;;24.20;46.30;;;;;;5050930;28;20105;-62
2021/05/31 10:40:46;;;;;;;19.52;12.40;;;24.30;45.90;;;;;;5046739;28;20112;-63
2021/05/31 10:43:17;;;;;;;22.63;12.15;;;24.30;46.20;;;;;;5048160;28;20120;-63
2021/05/31 10:45:43;;;;;;;16.55;12.00;;;24.50;43.80;;;;;;5048841;28;20150;-63
2021/05/31 10:48:17;;;;;;;18.38;11.50;;;24.50;44.70;;;;;;5057173;28;20104;-62
2021/05/31 10:50:46;;;;;;;15.73;11.30;;;24.60;45.60;;;;;;5046249;28;20097;-63
2021/05/31 10:55:57;;;;;;;19.00;10.40;;;24.70;41.90;;;;;;5051862;28;20116;-63
2021/05/31 10:58:27;;;;;;;13.95;8.80;;;25.00;43.30;;;;;;5056784;28;20310;-63
2021/05/31 11:01:01;;;;;;;14.13;9.13;;;25.10;42.70;;;;;;5057151;28;20093;-62
2021/05/31 11:03:28;;;;;;;14.88;9.05;;;25.20;41.80;;;;;;5054109;28;20111;-63
2021/05/31 11:05:55;;;;;;;16.73;10.00;;;25.30;41.60;;;;;;5054883;28;20459;-62
2021/05/31 11:08:25;;;;;;;15.95;9.95;;;25.30;40.70;;;;;;5062900;28;20089;-62
2021/05/31 11:10:56;;;;;;;12.30;8.40;;;25.40;40.30;;;;;;5053105;28;20117;-62
2021/05/31 11:13:22;;;;;;;15.82;8.98;;;25.40;40.30;;;;;;5047742;28;20121;-62
2021/05/31 11:16:04;;;;;;;13.40;8.68;;;25.40;40.40;;;;;;5049300;28;20228;-63
2021/05/31 11:18:45;;;;;;;13.57;8.77;;;25.50;39.50;;;;;;5048938;28;20458;-63
2021/05/31 11:21:25;;;;;;;14.23;8.65;;;25.50;37.10;;;;;;5057406;28;20082;-63
2021/05/31 11:24:09;;;;;;;11.85;8.55;;;25.50;39.10;;;;;;5058419;28;20192;-63
2021/05/31 11:26:38;;;;;;;11.27;7.70;;;25.50;39.40;;;;;;5052696;28;20125;-62
2021/05/31 11:29:05;;;;;;;;;;;25.50;40.00;;;;;;5048478;28;20138;-62
2021/05/31 11:31:32;;;;;;;12.68;8.00;;;26.80;39.60;;;;;;5048219;28;20064;-62
2021/05/31 11:33:58;;;;;;;12.88;8.38;;;25.70;39.90;;;;;;5058133;28;20093;-62
2021/05/31 11:36:41;;;;;;;10.35;7.07;;;27.20;40.20;;;;;;5050668;28;20109;-62
2021/05/31 11:39:10;;;;;;;12.93;8.20;;;26.10;39.10;;;;;;5049617;28;20104;-62
2021/05/31 11:41:46;;;;;;;14.02;7.85;;;26.20;38.00;;;;;;5049082;28;20089;-62
2021/05/31 11:44:33;;;;;;;14.23;8.63;;;26.20;38.40;;;;;;5039243;28;20116;-62
2021/05/31 11:47:01;;;;;;;12.27;8.32;;;26.30;36.50;;;;;;5053934;28;20085;-62
2021/05/31 11:49:28;;;;;;;;;;;26.20;38.30;;;;;;5053385;28;20186;-62
2021/05/31 11:51:56;;;;;;;10.70;7.97;;;26.10;38.60;;;;;;5079490;28;20025;-62
2021/05/31 11:54:23;;;;;;;12.43;8.03;;;26.10;38.30;;;;;;5042831;28;20089;-62
2021/05/31 11:56:49;;;;;;;12.95;7.43;;;26.00;36.00;;;;;;5061511;28;20117;-63
2021/05/31 11:59:16;;;;;;;12.68;7.75;;;26.00;37.20;;;;;;5048782;28;20539;-62
2021/05/31 12:01:52;;;;;;;11.68;6.93;;;25.90;37.60;;;;;;5050712;28;20085;-62
2021/05/31 12:04:18;;;;;;;11.57;6.57;;;25.60;34.10;;;;;;5032662;28;20090;-62
2021/05/31 12:07:05;;;;;;;11.13;7.28;;;26.00;35.50;;;;;;5051894;28;20168;-62
2021/05/31 12:09:31;;;;;;;11.35;7.00;;;26.10;35.60;;;;;;5053311;28;20702;-62
2021/05/31 12:11:57;;;;;;;10.52;6.75;;;26.20;34.90;;;;;;5052797;28;20118;-62
2021/05/31 12:14:25;;;;;;;11.05;6.57;;;26.10;34.50;;;;;;5049174;28;20097;-62
2021/05/31 12:17:03;;;;;;;7.22;4.95;;;26.40;33.30;;;;;;5050207;28;20105;-62
2021/05/31 12:19:30;;;;;;;7.28;5.10;;;26.40;34.20;;;;;;5048722;28;20187;-62
2021/05/31 12:22:03;;;;;;;8.45;4.82;;;26.00;32.10;;;;;;5047612;28;20146;-63
2021/05/31 12:24:32;;;;;;;10.95;6.68;;;26.50;33.40;;;;;;5049256;28;20118;-63
2021/05/31 12:26:59;;;;;;;10.18;6.05;;;26.60;33.90;;;;;;5049363;28;20191;-62
2021/05/31 12:29:47;;;;;;;8.63;6.03;;;26.70;33.00;;;;;;5047684;28;20623;-62
2021/05/31 12:32:18;;;;;;;6.03;4.10;;;25.20;29.30;;;;;;5048173;28;20045;-62
2021/05/31 12:34:45;;;;;;;6.00;3.85;;;26.60;31.10;;;;;;5043419;28;20044;-62
2021/05/31 12:37:16;;;;;;;8.13;3.75;;;26.70;28.80;;;;;;5053485;28;20036;-62
2021/05/31 12:39:45;;;;;;;5.90;3.70;;;26.60;28.30;;;;;;5047465;28;20079;-63
2021/05/31 12:42:11;;;;;;;;;;;26.60;28.40;;;;;;5050782;28;20189;-62
2021/05/31 12:44:38;;;;;;;6.38;3.90;;;26.50;28.50;;;;;;5052580;28;19920;-62
2021/05/31 12:47:11;;;;;;;7.85;3.60;;;26.50;29.60;;;;;;5050581;28;20045;-62
2021/05/31 12:49:46;;;;;;;6.05;4.03;;;27.20;29.60;;;;;;5052041;28;20072;-63
2021/05/31 12:52:13;;;;;;;6.40;3.50;;;26.80;28.40;;;;;;5052637;28;20044;-62
2021/05/31 12:54:40;;;;;;;6.20;3.45;;;26.80;29.00;;;;;;5052744;28;20041;-62
2021/05/31 12:57:12;;;;;;;6.68;3.60;;;26.90;29.00;;;;;;5050356;28;20095;-62
2021/05/31 12:59:39;;;;;;;5.47;3.60;;;26.80;27.80;;;;;;5060834;28;20041;-62
2021/05/31 13:02:16;;;;;;;5.05;3.75;;;26.80;28.80;;;;;;5085646;28;20033;-63